createdAt,value
2022-12-22T00:00:39.086Z,100947.34
2022-12-22T00:03:38.114Z,100944.00
2022-12-22T00:06:37.163Z,100949.03
2022-12-22T00:09:35.871Z,100945.41
2022-12-22T00:12:33.357Z,100943.50
2022-12-22T00:15:32.595Z,100929.38
2022-12-22T00:18:32.220Z,100939.94
2022-12-22T00:21:30.993Z,100926.81
2022-12-22T00:24:29.354Z,100924.94
2022-12-22T00:27:27.852Z,100916.25
2022-12-22T00:30:27.657Z,100917.84
2022-12-22T00:33:28.391Z,100912.44
2022-12-22T00:36:29.405Z,100918.56
2022-12-22T00:39:29.420Z,100907.88
2022-12-22T00:42:30.130Z,100911.22
2022-12-22T00:45:28.811Z,100900.53
2022-12-22T00:48:26.720Z,100892.50
2022-12-22T00:51:27.130Z,100887.09
2022-12-22T00:54:27.800Z,100887.09
2022-12-22T00:57:27.008Z,100877.94
2022-12-22T01:00:28.870Z,100881.44
2022-12-22T01:03:27.749Z,100873.63
2022-12-22T01:06:28.408Z,100866.69
2022-12-22T01:09:29.248Z,100876.28
2022-12-22T01:12:29.857Z,100875.94
2022-12-22T01:15:29.660Z,100881.09
2022-12-22T01:18:30.652Z,100862.34
2022-12-22T01:21:30.995Z,100864.03
2022-12-22T01:24:32.132Z,100862.22
2022-12-22T01:27:29.180Z,100864.03
2022-12-22T01:30:30.717Z,100864.03
2022-12-22T01:33:28.105Z,100865.69
2022-12-22T01:36:26.145Z,100863.19
2022-12-22T01:39:25.154Z,100860.28
2022-12-22T01:42:24.674Z,100857.78
2022-12-22T01:45:32.076Z,100851.28
2022-12-22T01:48:31.753Z,100843.59
2022-12-22T01:51:37.977Z,100840.69
2022-12-22T01:54:38.163Z,100833.38
2022-12-22T01:57:36.809Z,100832.41
2022-12-22T02:00:32.872Z,100829.88
2022-12-22T02:03:37.423Z,100830.59
2022-12-22T02:06:38.026Z,100827.13
2022-12-22T02:09:39.688Z,100835.66
2022-12-22T02:12:38.923Z,100827.84
2022-12-22T02:15:37.045Z,100820.78
2022-12-22T02:18:37.365Z,100811.88
2022-12-22T02:21:33.521Z,100813.78
2022-12-22T02:24:34.117Z,100802.28
2022-12-22T02:27:33.834Z,100808.50
2022-12-22T02:30:32.432Z,100805.75
2022-12-22T02:33:31.804Z,100803.94
2022-12-22T02:36:33.691Z,100799.50
2022-12-22T02:39:29.832Z,100787.13
2022-12-22T02:42:30.372Z,100783.78
2022-12-22T02:45:28.748Z,100778.59
2022-12-22T02:48:27.921Z,100784.63
2022-12-22T02:51:25.759Z,100774.28
2022-12-22T02:54:24.441Z,100780.41
2022-12-22T02:57:23.938Z,100768.16
2022-12-22T03:00:22.996Z,100756.88
2022-12-22T03:03:22.137Z,100760.22
2022-12-22T03:06:20.472Z,100746.31
2022-12-22T03:09:17.759Z,100744.44
2022-12-22T03:12:15.305Z,100750.19
2022-12-22T03:15:12.720Z,100748.78
2022-12-22T03:18:10.135Z,100744.19
2022-12-22T03:21:07.691Z,100739.88
2022-12-22T03:24:06.509Z,100733.75
2022-12-22T03:26:46.266Z,100722.50
2022-12-22T03:29:26.080Z,100725.25
2022-12-22T03:32:06.101Z,100726.66
2022-12-22T03:34:49.299Z,100725.00
2022-12-22T03:37:30.303Z,100724.16
2022-12-22T03:40:10.832Z,100719.13
2022-12-22T03:43:11.387Z,100712.19
2022-12-22T03:46:25.154Z,100708.94
2022-12-22T03:49:16.381Z,100697.91
2022-12-22T03:51:58.522Z,100694.69
2022-12-22T03:54:41.540Z,100697.84
2022-12-22T03:57:22.547Z,100688.50
2022-12-22T04:00:04.725Z,100689.84
2022-12-22T04:02:51.980Z,100671.03
2022-12-22T04:05:33.169Z,100682.88
2022-12-22T04:08:11.092Z,100688.63
2022-12-22T04:11:11.114Z,100678.31
2022-12-22T04:13:51.819Z,100676.13
2022-12-22T04:16:33.778Z,100672.28
2022-12-22T04:19:14.615Z,100670.63
2022-12-22T04:21:56.393Z,100668.22
2022-12-22T04:24:37.427Z,100667.09
2022-12-22T04:27:15.342Z,100671.56
2022-12-22T04:29:57.424Z,100670.13
2022-12-22T04:32:38.460Z,100677.22
2022-12-22T04:35:20.319Z,100670.28
2022-12-22T04:37:59.369Z,100667.50
2022-12-22T04:40:39.467Z,100663.63
2022-12-22T04:43:19.246Z,100668.44
2022-12-22T04:45:57.469Z,100658.13
2022-12-22T04:48:37.276Z,100653.06
2022-12-22T04:51:15.280Z,100654.66
2022-12-22T04:53:55.308Z,100645.16
2022-12-22T04:56:35.085Z,100624.69
2022-12-22T04:59:15.031Z,100631.75
2022-12-22T05:01:54.766Z,100625.06
2022-12-22T05:04:36.539Z,100621.84
2022-12-22T05:07:17.517Z,100621.25
2022-12-22T05:09:57.330Z,100615.47
2022-12-22T05:12:57.469Z,100609.38
2022-12-22T05:15:36.325Z,100602.28
2022-12-22T05:18:17.983Z,100613.19
2022-12-22T05:20:58.974Z,100603.75
2022-12-22T05:23:38.781Z,100600.41
2022-12-22T05:26:19.323Z,100589.38
2022-12-22T05:29:00.056Z,100585.06
2022-12-22T05:31:46.735Z,100585.06
2022-12-22T05:34:27.727Z,100583.41
2022-12-22T05:37:07.433Z,100573.25
2022-12-22T05:39:47.533Z,100582.22
2022-12-22T05:42:36.578Z,100581.38
2022-12-22T05:45:16.867Z,100571.22
2022-12-22T05:47:57.845Z,100570.13
2022-12-22T05:50:37.625Z,100563.69
2022-12-22T05:53:19.424Z,100569.09
2022-12-22T05:56:02.498Z,100561.56
2022-12-22T05:58:43.440Z,100556.66
2022-12-22T06:01:23.826Z,100554.00
2022-12-22T06:04:02.940Z,100548.53
2022-12-22T06:06:42.919Z,100545.31
2022-12-22T06:09:20.805Z,100537.75
2022-12-22T06:11:59.007Z,100536.06
2022-12-22T06:14:39.090Z,100533.81
2022-12-22T06:17:19.926Z,100528.09
2022-12-22T06:20:00.320Z,100525.09
2022-12-22T06:22:40.121Z,100523.66
2022-12-22T06:25:19.939Z,100502.25
2022-12-22T06:28:01.724Z,100503.59
2022-12-22T06:30:42.761Z,100508.25
2022-12-22T06:33:22.554Z,100500.72
2022-12-22T06:36:06.253Z,100495.72
2022-12-22T06:38:47.015Z,100493.47
2022-12-22T06:41:49.875Z,100490.13
2022-12-22T06:44:29.789Z,100483.38
2022-12-22T06:47:10.399Z,100493.94
2022-12-22T06:49:50.274Z,100491.16
2022-12-22T06:52:31.018Z,100487.56
2022-12-22T06:55:11.419Z,100487.69
2022-12-22T06:57:53.261Z,100486.16
2022-12-22T07:00:34.456Z,100486.97
2022-12-22T07:03:15.851Z,100480.63
2022-12-22T07:05:55.141Z,100483.25
2022-12-22T07:08:35.359Z,100478.00
2022-12-22T07:11:16.131Z,100486.72
2022-12-22T07:13:57.463Z,100486.59
2022-12-22T07:16:36.055Z,100480.28
2022-12-22T07:19:16.423Z,100493.06
2022-12-22T07:21:57.982Z,100487.94
2022-12-22T07:24:38.897Z,100488.53
2022-12-22T07:27:18.719Z,100485.25
2022-12-22T07:29:58.566Z,100474.47
2022-12-22T07:32:40.321Z,100466.69
2022-12-22T07:35:21.440Z,100471.34
2022-12-22T07:38:03.159Z,100465.09
2022-12-22T07:40:43.576Z,100469.41
2022-12-22T07:43:23.647Z,100472.03
2022-12-22T07:46:08.503Z,100474.56
2022-12-22T07:49:06.005Z,100470.94
2022-12-22T07:51:47.908Z,100480.41
2022-12-22T07:54:29.177Z,100488.44
2022-12-22T07:57:10.213Z,100488.44
2022-12-22T07:59:48.343Z,100487.59
2022-12-22T08:02:36.930Z,100489.03
2022-12-22T08:05:17.507Z,100491.44
2022-12-22T08:07:55.558Z,100496.69
2022-12-22T08:10:34.071Z,100495.47
2022-12-22T08:13:14.010Z,100491.63
2022-12-22T08:15:53.677Z,100489.94
2022-12-22T08:18:33.837Z,100493.44
2022-12-22T08:21:15.103Z,100502.28
2022-12-22T08:23:56.448Z,100511.03
2022-12-22T08:26:35.342Z,100516.19
2022-12-22T08:29:16.594Z,100527.31
2022-12-22T08:31:57.642Z,100513.06
2022-12-22T08:34:38.708Z,100511.88
2022-12-22T08:37:18.983Z,100504.53
2022-12-22T08:39:58.719Z,100513.75
2022-12-22T08:42:37.884Z,100509.75
2022-12-22T08:45:17.986Z,100511.56
2022-12-22T08:47:55.852Z,100502.69
2022-12-22T08:50:37.977Z,100511.31
2022-12-22T08:54:02.621Z,100515.38
2022-12-22T08:56:20.683Z,100516.22
2022-12-22T08:59:04.904Z,100524.69
2022-12-22T09:01:50.572Z,100535.00
2022-12-22T09:04:37.700Z,100536.16
2022-12-22T09:07:18.303Z,100534.94
2022-12-22T09:09:59.407Z,100545.22
2022-12-22T09:12:37.385Z,100547.63
2022-12-22T09:15:19.416Z,100557.91
2022-12-22T09:18:03.456Z,100549.84
2022-12-22T09:20:43.458Z,100555.75
2022-12-22T09:23:23.274Z,100557.84
2022-12-22T09:26:04.737Z,100559.38
2022-12-22T09:28:49.922Z,100559.72
2022-12-22T09:31:31.795Z,100559.19
2022-12-22T09:34:17.623Z,100557.84
2022-12-22T09:36:58.298Z,100554.78
2022-12-22T09:39:39.677Z,100559.56
2022-12-22T09:42:19.278Z,100558.19
2022-12-22T09:45:01.453Z,100542.66
2022-12-22T09:47:42.331Z,100550.06
2022-12-22T09:50:24.977Z,100551.59
2022-12-22T09:53:05.800Z,100559.38
2022-12-22T09:55:49.072Z,100556.63
2022-12-22T09:58:30.130Z,100566.78
2022-12-22T10:01:12.119Z,100564.13
2022-12-22T10:03:59.918Z,100563.16
2022-12-22T10:06:43.904Z,100562.34
2022-12-22T10:09:49.132Z,100563.91
2022-12-22T10:12:27.733Z,100561.50
2022-12-22T10:15:09.085Z,100575.69
2022-12-22T10:17:47.916Z,100561.34
2022-12-22T10:20:29.609Z,100568.31
2022-12-22T10:23:18.415Z,100562.94
2022-12-22T10:29:04.817Z,100558.75
2022-12-22T10:31:59.566Z,100562.81
2022-12-22T10:34:46.052Z,100563.97
2022-12-22T10:37:31.205Z,100562.72
2022-12-22T10:40:16.557Z,100563.97
2022-12-22T10:42:57.354Z,100575.13
2022-12-22T10:45:38.425Z,100585.41
2022-12-22T10:48:16.205Z,100587.13
2022-12-22T10:50:58.423Z,100588.78
2022-12-22T10:53:48.327Z,100598.53
2022-12-22T10:56:29.576Z,100608.69
2022-12-22T10:59:14.824Z,100611.06
2022-12-22T11:01:52.983Z,100604.94
2022-12-22T11:04:33.215Z,100607.72
2022-12-22T11:07:14.427Z,100610.50
2022-12-22T11:09:52.253Z,100620.53
2022-12-22T11:12:35.869Z,100622.19
2022-12-22T11:15:24.245Z,100624.97
2022-12-22T11:18:06.474Z,100628.63
2022-12-22T11:20:50.638Z,100633.66
2022-12-22T11:23:32.927Z,100636.44
2022-12-22T11:26:15.416Z,100625.31
2022-12-22T11:28:58.731Z,100623.09
2022-12-22T11:31:43.970Z,100632.31
2022-12-22T11:34:26.314Z,100638.72
2022-12-22T11:37:11.849Z,100636.91
2022-12-22T11:39:57.454Z,100635.13
2022-12-22T11:42:42.108Z,100626.22
2022-12-22T11:45:41.039Z,100647.38
2022-12-22T11:48:33.887Z,100656.59
2022-12-22T11:51:14.312Z,100666.91
2022-12-22T11:53:58.099Z,100666.63
2022-12-22T11:56:41.574Z,100676.38
2022-12-22T11:59:31.921Z,100686.97
2022-12-22T12:02:28.943Z,100694.53
2022-12-22T12:05:32.264Z,100693.13
2022-12-22T12:08:18.140Z,100692.88
2022-12-22T12:11:04.522Z,100706.53
2022-12-22T12:13:45.181Z,100707.94
2022-12-22T12:16:26.716Z,100711.81
2022-12-22T12:19:23.155Z,100710.56
2022-12-22T12:22:10.835Z,100708.75
2022-12-22T12:24:54.459Z,100725.22
2022-12-22T12:27:39.042Z,100728.69
2022-12-22T12:33:18.514Z,100751.81
2022-12-22T12:36:11.762Z,100755.44
2022-12-22T12:39:10.343Z,100771.91
2022-12-22T12:42:02.299Z,100768.69
2022-12-22T12:44:45.888Z,100768.13
2022-12-22T12:47:25.652Z,100779.00
2022-12-22T12:50:19.827Z,100793.22
2022-12-22T12:53:08.024Z,100795.19
2022-12-22T12:55:54.334Z,100786.53
2022-12-22T12:58:52.784Z,100802.59
2022-12-22T13:01:55.221Z,100795.50
2022-12-22T13:04:53.083Z,100791.41
2022-12-22T13:07:50.274Z,100795.22
2022-12-22T13:10:33.077Z,100796.88
2022-12-22T13:13:12.818Z,100802.84
2022-12-22T13:16:13.454Z,100812.22
2022-12-22T13:18:58.342Z,100801.16
2022-12-22T13:21:52.941Z,100818.03
2022-12-22T13:24:49.002Z,100809.53
2022-12-22T13:27:29.826Z,100815.53
2022-12-22T13:30:13.909Z,100819.44
2022-12-22T13:32:54.269Z,100820.69
2022-12-22T13:35:39.874Z,100828.47
2022-12-22T13:38:29.100Z,100830.28
2022-12-22T13:41:14.049Z,100833.09
2022-12-22T13:43:58.281Z,100840.94
2022-12-22T13:46:39.084Z,100820.53
2022-12-22T13:49:43.411Z,100818.19
2022-12-22T13:52:21.186Z,100798.91
2022-12-22T13:55:02.308Z,100799.31
2022-12-22T13:57:42.227Z,100799.13
2022-12-22T14:00:23.849Z,100795.31
2022-12-22T14:03:34.184Z,100780.06
2022-12-22T14:06:21.465Z,100784.38
2022-12-22T14:09:15.020Z,100782.97
2022-12-22T14:11:57.518Z,100785.16
2022-12-22T14:14:39.241Z,100783.06
2022-12-22T14:17:22.740Z,100776.75
2022-12-22T14:20:04.102Z,100774.88
2022-12-22T14:22:45.701Z,100775.28
2022-12-22T14:25:26.172Z,100782.88
2022-12-22T14:28:07.674Z,100781.03
2022-12-22T14:30:49.311Z,100792.97
2022-12-22T14:33:33.291Z,100796.38
2022-12-22T14:36:17.363Z,100800.09
2022-12-22T14:39:02.339Z,100798.94
2022-12-22T14:41:51.581Z,100796.78
2022-12-22T14:44:34.473Z,100785.91
2022-12-22T14:47:16.347Z,100797.09
2022-12-22T14:49:56.741Z,100795.34
2022-12-22T14:52:39.178Z,100795.13
2022-12-22T14:55:26.612Z,100798.25
2022-12-22T14:58:07.759Z,100804.88
2022-12-22T15:00:48.848Z,100810.06
2022-12-22T15:03:30.818Z,100809.72
2022-12-22T15:06:31.891Z,100820.66
2022-12-22T15:10:03.822Z,100824.00
2022-12-22T15:12:25.120Z,100835.78
2022-12-22T15:15:09.491Z,100841.56
2022-12-22T15:17:51.044Z,100844.19
2022-12-22T15:20:39.374Z,100848.34
2022-12-22T15:23:20.146Z,100848.00
2022-12-22T15:25:59.993Z,100851.25
2022-12-22T15:28:40.000Z,100857.56
2022-12-22T15:31:21.476Z,100868.31
2022-12-22T15:34:03.467Z,100866.16
2022-12-22T15:36:45.991Z,100864.72
2022-12-22T15:39:27.032Z,100873.94
2022-12-22T15:42:06.952Z,100869.97
2022-12-22T15:44:48.604Z,100872.97
2022-12-22T15:47:31.604Z,100862.97
2022-12-22T15:50:17.181Z,100873.44
2022-12-22T15:53:00.280Z,100881.22
2022-12-22T15:55:40.893Z,100883.34
2022-12-22T15:58:23.924Z,100895.78
2022-12-22T16:01:06.928Z,100901.28
2022-12-22T16:03:49.724Z,100909.31
2022-12-22T16:06:30.730Z,100910.63
2022-12-22T16:09:13.722Z,100917.88
2022-12-22T16:11:53.663Z,100926.03
2022-12-22T16:14:39.237Z,100929.63
2022-12-22T16:17:23.751Z,100937.63
2022-12-22T16:20:04.390Z,100933.44
2022-12-22T16:22:45.480Z,100932.59
2022-12-22T16:25:26.017Z,100934.28
2022-12-22T16:28:06.869Z,100927.31
2022-12-22T16:30:46.650Z,100924.81
2022-12-22T16:33:26.323Z,100932.59
2022-12-22T16:36:06.434Z,100922.50
2022-12-22T16:38:48.380Z,100924.44
2022-12-22T16:41:29.253Z,100922.94
2022-12-22T16:44:10.760Z,100906.03
2022-12-22T16:46:51.907Z,100905.53
2022-12-22T16:49:33.196Z,100913.31
2022-12-22T16:52:18.423Z,100907.53
2022-12-22T16:54:59.335Z,100900.19
2022-12-22T16:57:39.201Z,100904.72
2022-12-22T17:00:21.669Z,100898.38
2022-12-22T17:03:02.691Z,100898.63
2022-12-22T17:05:46.236Z,100897.78
2022-12-22T17:08:28.979Z,100897.78
2022-12-22T17:11:11.974Z,100905.06
2022-12-22T17:13:53.111Z,100909.38
2022-12-22T17:16:33.998Z,100918.00
2022-12-22T17:19:15.247Z,100906.19
2022-12-22T17:21:56.652Z,100901.63
2022-12-22T17:24:36.512Z,100918.59
2022-12-22T17:27:17.850Z,100906.06
2022-12-22T17:29:59.377Z,100908.06
2022-12-22T17:32:42.582Z,100913.66
2022-12-22T17:35:26.179Z,100915.47
2022-12-22T17:38:06.519Z,100927.34
2022-12-22T17:40:48.634Z,100930.06
2022-12-22T17:43:31.360Z,100919.16
2022-12-22T17:46:14.642Z,100912.41
2022-12-22T17:48:57.368Z,100915.25
2022-12-22T17:51:38.465Z,100913.88
2022-12-22T17:54:21.871Z,100909.06
2022-12-22T17:57:03.299Z,100909.78
2022-12-22T17:59:44.180Z,100908.63
2022-12-22T18:06:12.839Z,100910.53
2022-12-22T18:08:55.664Z,100919.66
2022-12-22T18:11:38.153Z,100926.28
2022-12-22T18:14:23.236Z,100919.34
2022-12-22T18:17:03.036Z,100910.59
2022-12-22T18:19:42.810Z,100919.88
2022-12-22T18:22:23.025Z,100913.44
2022-12-22T18:25:04.129Z,100907.84
2022-12-22T18:27:43.966Z,100910.75
2022-12-22T18:30:24.609Z,100907.50
2022-12-22T18:33:05.259Z,100904.53
2022-12-22T18:35:45.883Z,100906.84
2022-12-22T18:38:27.337Z,100905.69
2022-12-22T18:41:08.693Z,100915.53
2022-12-22T18:43:49.249Z,100906.91
2022-12-22T18:46:28.977Z,100907.97
2022-12-22T18:49:10.726Z,100901.75
2022-12-22T18:52:05.361Z,100895.16
2022-12-22T18:54:46.569Z,100894.41
2022-12-22T18:57:28.366Z,100893.34
2022-12-22T19:00:13.935Z,100885.69
2022-12-22T19:02:55.132Z,100884.84
2022-12-22T19:05:37.787Z,100870.91
2022-12-22T19:11:36.571Z,100862.19
2022-12-22T19:14:17.569Z,100853.63
2022-12-22T19:16:56.223Z,100841.66
2022-12-22T19:19:34.265Z,100845.22
2022-12-22T19:22:14.297Z,100840.91
2022-12-22T19:24:57.236Z,100837.53
2022-12-22T19:27:35.321Z,100838.78
2022-12-22T19:30:16.476Z,100824.16
2022-12-22T19:33:01.204Z,100828.25
2022-12-22T19:35:39.769Z,100822.03
2022-12-22T19:38:21.117Z,100825.63
2022-12-22T19:41:03.883Z,100830.88
2022-12-22T19:43:44.136Z,100829.94
2022-12-22T19:46:22.063Z,100825.72
2022-12-22T19:49:00.189Z,100827.53
2022-12-22T19:51:40.277Z,100817.94
2022-12-22T19:54:20.230Z,100820.47
2022-12-22T19:56:59.962Z,100814.59
2022-12-22T19:59:40.698Z,100817.34
2022-12-22T20:02:24.438Z,100817.66
2022-12-22T20:05:04.938Z,100811.44
2022-12-22T20:07:48.754Z,100805.31
2022-12-22T20:10:26.645Z,100799.22
2022-12-22T20:13:06.020Z,100809.53
2022-12-22T20:15:44.848Z,100807.66
2022-12-22T20:18:25.195Z,100798.03
2022-12-22T20:21:05.193Z,100801.53
2022-12-22T20:23:48.064Z,100798.03
2022-12-22T20:26:29.146Z,100790.78
2022-12-22T20:29:11.769Z,100786.34
2022-12-22T20:31:52.502Z,100781.22
2022-12-22T20:34:33.835Z,100775.81
2022-12-22T20:37:15.867Z,100772.84
2022-12-22T20:39:56.392Z,100768.47
2022-12-22T20:42:39.968Z,100764.66
2022-12-22T20:45:21.196Z,100760.09
2022-12-22T20:48:00.251Z,100756.50
2022-12-22T20:50:40.900Z,100763.34
2022-12-22T20:53:21.954Z,100756.50
2022-12-22T20:56:01.296Z,100754.72
2022-12-22T20:58:39.184Z,100745.84
2022-12-22T21:01:17.798Z,100747.19
2022-12-22T21:03:58.657Z,100739.78
2022-12-22T21:06:38.191Z,100746.72
2022-12-22T21:09:18.778Z,100743.16
2022-12-22T21:12:00.965Z,100754.16
2022-12-22T21:14:41.660Z,100755.34
2022-12-22T21:17:19.628Z,100756.13
2022-12-22T21:19:57.715Z,100753.34
2022-12-22T21:22:37.711Z,100757.78
2022-12-22T21:25:15.953Z,100746.91
2022-12-22T21:27:55.922Z,100751.94
2022-12-22T21:30:35.497Z,100742.97
2022-12-22T21:33:15.334Z,100742.84
2022-12-22T21:35:58.075Z,100733.13
2022-12-22T21:38:38.170Z,100739.59
2022-12-22T21:41:17.936Z,100737.66
2022-12-22T21:43:57.780Z,100736.50
2022-12-22T21:46:39.610Z,100732.19
2022-12-22T21:49:21.197Z,100726.91
2022-12-22T21:52:02.170Z,100717.44
2022-12-22T21:54:40.007Z,100718.50
2022-12-22T21:57:18.212Z,100708.91
2022-12-22T21:59:58.225Z,100712.50
2022-12-22T22:02:38.131Z,100707.50
2022-12-22T22:05:26.707Z,100713.59
2022-12-22T22:08:08.387Z,100706.78
2022-12-22T22:10:46.767Z,100706.91
2022-12-22T22:13:24.968Z,100700.91
2022-12-22T22:16:03.206Z,100695.50
2022-12-22T22:18:43.946Z,100696.47
2022-12-22T22:21:24.810Z,100688.44
2022-12-22T22:24:02.606Z,100682.56
2022-12-22T22:26:41.031Z,100681.75
2022-12-22T22:29:22.601Z,100663.03
2022-12-22T22:32:05.572Z,100655.13
2022-12-22T22:34:47.308Z,100644.34
2022-12-22T22:37:31.454Z,100661.75
2022-12-22T22:40:12.121Z,100649.28
2022-12-22T22:42:52.824Z,100646.97
2022-12-22T22:45:34.880Z,100643.38
2022-12-22T22:48:19.957Z,100644.22
2022-12-22T22:51:00.211Z,100643.03
2022-12-22T22:53:39.996Z,100643.28
2022-12-22T22:56:19.767Z,100631.78
2022-12-22T22:58:58.036Z,100637.16
2022-12-22T23:01:35.910Z,100628.41
2022-12-22T23:04:14.572Z,100637.28
2022-12-22T23:06:55.800Z,100636.31
2022-12-22T23:09:33.741Z,100632.63
2022-12-22T23:12:14.004Z,100630.09
2022-12-22T23:14:51.716Z,100624.84
2022-12-22T23:17:30.134Z,100625.44
2022-12-22T23:20:10.584Z,100621.94
2022-12-22T23:22:51.448Z,100619.31
2022-12-22T23:25:29.383Z,100616.69
2022-12-22T23:28:09.595Z,100607.31
2022-12-22T23:30:51.524Z,100610.91
2022-12-22T23:33:32.952Z,100610.06
2022-12-22T23:36:11.839Z,100609.94
2022-12-22T23:38:52.024Z,100615.59
2022-12-22T23:41:31.790Z,100601.59
2022-12-22T23:44:11.719Z,100597.16
2022-12-22T23:46:49.560Z,100597.84
2022-12-22T23:49:29.709Z,100585.75
2022-12-22T23:52:09.374Z,100595.47
2022-12-22T23:54:49.354Z,100590.78
2022-12-22T23:57:28.768Z,100599.41
